CheckWX is a tool to help pilots better visualize weather data.  It is not intended as a substitute for an official pre-flight weather briefing.

17:33:45 UTC

ENHD METAR
Haugesund Airport
Karmøy, Norway
Current

14 mins ago

ENHD 241720Z 26012KT 9999 VCSH FEW014CB SCT024 05/03 Q1007
Observed
Mar-24 @ 17:20 UTC
Wind
  • 260° at 12 KTS
Visibility
10,000+ meters
Flight Rules
VFR
Cloud Levels
  • Few at 1,400' AGL
  • Scattered at 2,400' AGL
Temperature
C / 41°F
Dewpoint
C / 37°F
Humidity
87%
Altimeter
29.73" Hg
Pressure
1006.92 hPa
Previous

44 mins ago

ENHD 241650Z 26017KT 9999 VCSH FEW014CB SCT025 05/03 Q1008
Observed
Mar-24 @ 16:50 UTC
Wind
  • 260° at 17 KTS
Visibility
10,000+ meters
Flight Rules
VFR
Cloud Levels
  • Few at 1,400' AGL
  • Scattered at 2,500' AGL
Temperature
C / 41°F
Dewpoint
C / 37°F
Humidity
87%
Altimeter
29.76" Hg
Pressure
1007.92 hPa
Previous

1 hour ago

ENHD 241620Z 25017KT 9999 VCSH BKN016 05/03 Q1008
Observed
Mar-24 @ 16:20 UTC
Wind
  • 250° at 17 KTS
Visibility
10,000+ meters
Flight Rules
MVFR
Cloud Levels
  • Broken at 1,600' AGL
Temperature
C / 41°F
Dewpoint
C / 37°F
Humidity
87%
Altimeter
29.76" Hg
Pressure
1007.92 hPa